Impacts METAR Board INFO
IDs:

KIAH - Houston/Bush Intl, TX, US

Updated at: 0037 UTC 14 Dec 2017
Potential Impact None Slight Moderate High
Time13/12Z 13/13Z 13/14Z 13/15Z 13/16Z 13/17Z 13/18Z 13/19Z 13/20Z 13/21Z 13/22Z 13/23Z 14/00Z
VIS10 10 10 10 10 10 10 10 10 10 10 10 10
CIG-- -- 250 250 250 250 250 220 240 250 250 250 250
CoverFEWSCTBKNBKNBKNBKNOVCOVCBKNBKNBKNBKNBKN
FltCatVFRVFRVFRVFRVFRVFRVFRVFRVFRVFRVFRVFRVFR
WX--------------------------
WDir0002702502302302002002302202000
WSpd0 0 0 3 3 6 8 6 5 4 4 3 0
WGst-- -- -- -- -- -- -- -- -- -- -- -- --
Raw hourly METARs
KIAH 131153Z 00000KT 10SM FEW250 01/00 A3017 RMK AO2 SLP217 T00060000 10050 20006 56009
KIAH 131253Z 00000KT 10SM SCT250 01/00 A3018 RMK AO2 SLP221 T00110000
KIAH 131353Z 00000KT 10SM BKN250 02/01 A3018 RMK AO2 SLP220 T00170011
KIAH 131453Z 27003KT 10SM BKN250 07/03 A3019 RMK AO2 SLP223 T00670028 51006
KIAH 131553Z 25003KT 10SM BKN250 10/01 A3020 RMK AO2 SLP228 T01000011
KIAH 131653Z 23006KT 10SM SCT190 BKN250 13/00 A3019 RMK AO2 SLP224 T01280000
KIAH 131753Z 23008KT 10SM SCT190 OVC250 13/M02 A3016 RMK AO2 SLP213 T01331017 10133 20006 58010
KIAH 131853Z 20006KT 10SM BKN220 OVC300 14/M02 A3013 RMK AO2 SLP202 T01391017
KIAH 131953Z 20005KT 10SM BKN240 BKN300 14/M01 A3008 RMK AO2 SLP186 T01391011
KIAH 132053Z 23004KT 10SM SCT210 BKN250 14/M01 A3006 RMK AO2 SLP178 T01441006 56034
KIAH 132153Z 22004KT 10SM FEW200 BKN250 14/00 A3004 RMK AO2 SLP172 T01440000
KIAH 132253Z 20003KT 10SM FEW200 BKN250 13/01 A3003 RMK AO2 SLP169 T01330006
KIAH 132353Z 00000KT 10SM BKN250 12/01 A3002 RMK AO2 SLP167 T01170011 10150 20117 56012